sensor_id;sensor_type;location;lat;lon;timestamp;pressure;altitude;pressure_sealevel;temperature;humidity
14089;BME280;7120;52.890;6.040;2023-09-19T00:00:19;100461.69;;;13.98;100.00
14089;BME280;7120;52.890;6.040;2023-09-19T00:02:46;100466.50;;;14.01;100.00
14089;BME280;7120;52.890;6.040;2023-09-19T00:05:16;100464.91;;;14.00;100.00
14089;BME280;7120;52.890;6.040;2023-09-19T00:07:42;100471.09;;;13.97;100.00
14089;BME280;7120;52.890;6.040;2023-09-19T00:10:07;100483.53;;;13.95;100.00
14089;BME280;7120;52.890;6.040;2023-09-19T00:12:34;100469.59;;;14.00;100.00
14089;BME280;7120;52.890;6.040;2023-09-19T00:15:00;100477.84;;;14.00;100.00
14089;BME280;7120;52.890;6.040;2023-09-19T00:17:27;100478.53;;;13.97;100.00
14089;BME280;7120;52.890;6.040;2023-09-19T00:19:55;100481.56;;;14.04;100.00
14089;BME280;7120;52.890;6.040;2023-09-19T00:22:21;100474.44;;;14.03;100.00
14089;BME280;7120;52.890;6.040;2023-09-19T00:24:46;100481.63;;;13.95;100.00
14089;BME280;7120;52.890;6.040;2023-09-19T00:27:11;100486.97;;;13.92;100.00
14089;BME280;7120;52.890;6.040;2023-09-19T00:29:37;100495.06;;;13.88;100.00
14089;BME280;7120;52.890;6.040;2023-09-19T00:32:03;100496.81;;;13.93;100.00
14089;BME280;7120;52.890;6.040;2023-09-19T00:34:30;100494.25;;;13.88;100.00
14089;BME280;7120;52.890;6.040;2023-09-19T00:36:56;100487.47;;;13.85;100.00
14089;BME280;7120;52.890;6.040;2023-09-19T00:39:21;100490.63;;;13.75;100.00
14089;BME280;7120;52.890;6.040;2023-09-19T00:41:47;100494.81;;;13.72;100.00
14089;BME280;7120;52.890;6.040;2023-09-19T00:44:12;100493.56;;;13.70;100.00
14089;BME280;7120;52.890;6.040;2023-09-19T00:46:38;100503.88;;;13.73;100.00
14089;BME280;7120;52.890;6.040;2023-09-19T00:49:03;100500.31;;;13.72;100.00
14089;BME280;7120;52.890;6.040;2023-09-19T00:51:29;100502.41;;;13.76;100.00
14089;BME280;7120;52.890;6.040;2023-09-19T00:53:55;100482.00;;;13.56;100.00
14089;BME280;7120;52.890;6.040;2023-09-19T00:56:21;100499.22;;;13.65;100.00
14089;BME280;7120;52.890;6.040;2023-09-19T00:58:47;100506.66;;;13.64;100.00
14089;BME280;7120;52.890;6.040;2023-09-19T01:01:15;100505.19;;;13.67;100.00
14089;BME280;7120;52.890;6.040;2023-09-19T01:03:42;100513.13;;;13.68;100.00
14089;BME280;7120;52.890;6.040;2023-09-19T01:06:07;100498.94;;;13.58;100.00
14089;BME280;7120;52.890;6.040;2023-09-19T01:08:36;100503.88;;;13.73;100.00
14089;BME280;7120;52.890;6.040;2023-09-19T01:13:49;100508.72;;;13.76;100.00
14089;BME280;7120;52.890;6.040;2023-09-19T01:19:14;100512.31;;;13.68;100.00
14089;BME280;7120;52.890;6.040;2023-09-19T01:21:59;100511.19;;;13.69;100.00
14089;BME280;7120;52.890;6.040;2023-09-19T01:27:32;100510.78;;;13.50;100.00
14089;BME280;7120;52.890;6.040;2023-09-19T01:30:24;100521.72;;;13.58;100.00
14089;BME280;7120;52.890;6.040;2023-09-19T01:32:53;100521.25;;;13.56;100.00
14089;BME280;7120;52.890;6.040;2023-09-19T01:35:19;100523.03;;;13.52;100.00
14089;BME280;7120;52.890;6.040;2023-09-19T01:37:44;100518.47;;;13.65;100.00
14089;BME280;7120;52.890;6.040;2023-09-19T01:40:12;100515.91;;;13.60;100.00
14089;BME280;7120;52.890;6.040;2023-09-19T01:42:56;100524.00;;;13.56;100.00
14089;BME280;7120;52.890;6.040;2023-09-19T01:47:52;100529.84;;;13.55;100.00
14089;BME280;7120;52.890;6.040;2023-09-19T01:53:06;100532.53;;;13.63;100.00
14089;BME280;7120;52.890;6.040;2023-09-19T01:55:37;100530.41;;;13.69;100.00
14089;BME280;7120;52.890;6.040;2023-09-19T02:00:40;100538.00;;;13.72;100.00
14089;BME280;7120;52.890;6.040;2023-09-19T02:03:08;100519.44;;;13.69;100.00
14089;BME280;7120;52.890;6.040;2023-09-19T02:05:34;100533.78;;;13.74;100.00
14089;BME280;7120;52.890;6.040;2023-09-19T02:07:59;100524.06;;;13.77;100.00
14089;BME280;7120;52.890;6.040;2023-09-19T02:10:25;100526.78;;;13.86;100.00
14089;BME280;7120;52.890;6.040;2023-09-19T02:12:51;100523.56;;;13.84;100.00
14089;BME280;7120;52.890;6.040;2023-09-19T02:15:16;100521.44;;;13.89;100.00
14089;BME280;7120;52.890;6.040;2023-09-19T02:17:43;100528.19;;;13.92;100.00
14089;BME280;7120;52.890;6.040;2023-09-19T02:20:10;100525.25;;;13.97;100.00
14089;BME280;7120;52.890;6.040;2023-09-19T02:22:41;100538.09;;;13.84;100.00
14089;BME280;7120;52.890;6.040;2023-09-19T02:25:07;100535.06;;;13.77;100.00
14089;BME280;7120;52.890;6.040;2023-09-19T02:27:34;100530.25;;;13.65;100.00
14089;BME280;7120;52.890;6.040;2023-09-19T02:29:59;100539.81;;;13.68;100.00
14089;BME280;7120;52.890;6.040;2023-09-19T02:32:27;100528.59;;;13.73;100.00
14089;BME280;7120;52.890;6.040;2023-09-19T02:34:55;100537.63;;;13.82;100.00
14089;BME280;7120;52.890;6.040;2023-09-19T02:37:20;100539.59;;;13.82;100.00
14089;BME280;7120;52.890;6.040;2023-09-19T02:39:46;100545.25;;;13.77;100.00
14089;BME280;7120;52.890;6.040;2023-09-19T02:42:11;100539.59;;;13.82;100.00
14089;BME280;7120;52.890;6.040;2023-09-19T02:44:37;100542.28;;;13.90;100.00
14089;BME280;7120;52.890;6.040;2023-09-19T02:47:03;100538.09;;;13.84;100.00
14089;BME280;7120;52.890;6.040;2023-09-19T02:49:29;100549.09;;;13.84;100.00
14089;BME280;7120;52.890;6.040;2023-09-19T02:51:54;100539.88;;;13.80;100.00
14089;BME280;7120;52.890;6.040;2023-09-19T02:54:19;100555.63;;;14.00;100.00
14089;BME280;7120;52.890;6.040;2023-09-19T02:56:45;100565.19;;;14.03;100.00
14089;BME280;7120;52.890;6.040;2023-09-19T02:59:10;100568.75;;;14.04;100.00
14089;BME280;7120;52.890;6.040;2023-09-19T03:01:36;100565.19;;;14.03;100.00
14089;BME280;7120;52.890;6.040;2023-09-19T03:04:03;100575.56;;;13.97;100.00
14089;BME280;7120;52.890;6.040;2023-09-19T03:06:31;100550.72;;;13.85;100.00
14089;BME280;7120;52.890;6.040;2023-09-19T03:08:56;100531.50;;;13.77;100.00
14089;BME280;7120;52.890;6.040;2023-09-19T03:11:22;100520.66;;;13.80;100.00
14089;BME280;7120;52.890;6.040;2023-09-19T03:13:54;100517.38;;;13.87;100.00
14089;BME280;7120;52.890;6.040;2023-09-19T03:16:20;100515.97;;;13.81;100.00
14089;BME280;7120;52.890;6.040;2023-09-19T03:18:50;100518.09;;;13.75;100.00
14089;BME280;7120;52.890;6.040;2023-09-19T03:21:16;100526.94;;;13.81;100.00
14089;BME280;7120;52.890;6.040;2023-09-19T03:23:42;100545.38;;;13.80;100.00
14089;BME280;7120;52.890;6.040;2023-09-19T03:26:10;100557.41;;;13.76;100.00
14089;BME280;7120;52.890;6.040;2023-09-19T03:28:35;100571.59;;;13.78;100.00
14089;BME280;7120;52.890;6.040;2023-09-19T03:31:02;100571.72;;;13.90;100.00
14089;BME280;7120;52.890;6.040;2023-09-19T03:33:27;100561.81;;;13.97;100.00
14089;BME280;7120;52.890;6.040;2023-09-19T03:35:53;100557.41;;;14.05;100.00
14089;BME280;7120;52.890;6.040;2023-09-19T03:38:19;100544.97;;;13.99;100.00
14089;BME280;7120;52.890;6.040;2023-09-19T03:40:44;100550.06;;;14.09;100.00
14089;BME280;7120;52.890;6.040;2023-09-19T03:43:10;100555.03;;;14.24;100.00
14089;BME280;7120;52.890;6.040;2023-09-19T03:45:35;100551.50;;;14.15;100.00
14089;BME280;7120;52.890;6.040;2023-09-19T03:48:01;100548.09;;;14.18;100.00
14089;BME280;7120;52.890;6.040;2023-09-19T03:50:26;100538.78;;;14.11;100.00
14089;BME280;7120;52.890;6.040;2023-09-19T03:52:56;100526.38;;;14.25;100.00
14089;BME280;7120;52.890;6.040;2023-09-19T03:55:22;100531.44;;;14.15;100.00
14089;BME280;7120;52.890;6.040;2023-09-19T03:57:50;100529.06;;;14.34;100.00
14089;BME280;7120;52.890;6.040;2023-09-19T04:00:16;100521.41;;;14.40;100.00
14089;BME280;7120;52.890;6.040;2023-09-19T04:02:43;100554.72;;;14.47;100.00
14089;BME280;7120;52.890;6.040;2023-09-19T04:05:11;100554.84;;;14.50;100.00
14089;BME280;7120;52.890;6.040;2023-09-19T04:07:36;100548.09;;;14.48;100.00
14089;BME280;7120;52.890;6.040;2023-09-19T04:10:02;100555.88;;;14.46;100.00
14089;BME280;7120;52.890;6.040;2023-09-19T04:12:28;100564.78;;;14.64;100.00
14089;BME280;7120;52.890;6.040;2023-09-19T04:14:53;100571.97;;;14.56;100.00
14089;BME280;7120;52.890;6.040;2023-09-19T04:17:19;100564.19;;;14.58;100.00
14089;BME280;7120;52.890;6.040;2023-09-19T04:19:45;100563.06;;;14.59;100.00
14089;BME280;7120;52.890;6.040;2023-09-19T04:22:11;100563.69;;;14.35;100.00
14089;BME280;7120;52.890;6.040;2023-09-19T04:24:38;100571.00;;;14.31;100.00
14089;BME280;7120;52.890;6.040;2023-09-19T04:27:04;100576.34;;;14.27;100.00
14089;BME280;7120;52.890;6.040;2023-09-19T04:29:30;100597.94;;;14.17;100.00
14089;BME280;7120;52.890;6.040;2023-09-19T04:31:56;100589.69;;;14.17;100.00
14089;BME280;7120;52.890;6.040;2023-09-19T04:34:24;100592.63;;;14.12;100.00
14089;BME280;7120;52.890;6.040;2023-09-19T04:36:50;100577.84;;;14.16;100.00
14089;BME280;7120;52.890;6.040;2023-09-19T04:39:15;100579.88;;;14.07;100.00
14089;BME280;7120;52.890;6.040;2023-09-19T04:41:42;100588.13;;;14.07;100.00
14089;BME280;7120;52.890;6.040;2023-09-19T04:44:07;100592.69;;;14.03;100.00
14089;BME280;7120;52.890;6.040;2023-09-19T04:46:35;100592.81;;;14.07;100.00
14089;BME280;7120;52.890;6.040;2023-09-19T04:49:01;100606.56;;;14.07;100.00
14089;BME280;7120;52.890;6.040;2023-09-19T04:51:27;100587.69;;;13.96;100.00
14089;BME280;7120;52.890;6.040;2023-09-19T04:53:58;100594.91;;;14.10;100.00
14089;BME280;7120;52.890;6.040;2023-09-19T04:56:23;100593.00;;;14.01;100.00
14089;BME280;7120;52.890;6.040;2023-09-19T04:58:49;100608.50;;;14.06;100.00
14089;BME280;7120;52.890;6.040;2023-09-19T05:01:14;100617.00;;;14.22;100.00
14089;BME280;7120;52.890;6.040;2023-09-19T05:03:40;100606.78;;;14.22;100.00
14089;BME280;7120;52.890;6.040;2023-09-19T05:06:05;100596.13;;;14.21;100.00
14089;BME280;7120;52.890;6.040;2023-09-19T05:08:31;100601.09;;;14.27;100.00
14089;BME280;7120;52.890;6.040;2023-09-19T05:10:56;100599.69;;;14.21;100.00
14089;BME280;7120;52.890;6.040;2023-09-19T05:13:22;100597.41;;;14.23;100.00
14089;BME280;7120;52.890;6.040;2023-09-19T05:15:49;100598.13;;;14.12;100.00
14089;BME280;7120;52.890;6.040;2023-09-19T05:18:15;100599.72;;;14.13;100.00
14089;BME280;7120;52.890;6.040;2023-09-19T05:20:40;100605.06;;;14.09;100.00
14089;BME280;7120;52.890;6.040;2023-09-19T05:23:07;100592.69;;;13.94;100.00
14089;BME280;7120;52.890;6.040;2023-09-19T05:25:38;100608.16;;;14.08;100.00
14089;BME280;7120;52.890;6.040;2023-09-19T05:28:09;100604.16;;;14.05;100.00
14089;BME280;7120;52.890;6.040;2023-09-19T05:30:38;100598.19;;;14.03;100.00
14089;BME280;7120;52.890;6.040;2023-09-19T05:33:04;100600.47;;;13.92;100.00
14089;BME280;7120;52.890;6.040;2023-09-19T05:35:30;100603.06;;;13.97;100.00
14089;BME280;7120;52.890;6.040;2023-09-19T05:37:56;100612.75;;;13.95;100.00
14089;BME280;7120;52.890;6.040;2023-09-19T05:40:23;100617.25;;;13.99;100.00
14089;BME280;7120;52.890;6.040;2023-09-19T05:42:49;100613.66;;;14.08;100.00
14089;BME280;7120;52.890;6.040;2023-09-19T05:45:16;100621.28;;;14.02;100.00
14089;BME280;7120;52.890;6.040;2023-09-19T05:47:48;100610.75;;;14.13;100.00
14089;BME280;7120;52.890;6.040;2023-09-19T05:50:13;100614.25;;;14.22;100.00
14089;BME280;7120;52.890;6.040;2023-09-19T05:52:40;100612.16;;;14.19;100.00
14089;BME280;7120;52.890;6.040;2023-09-19T05:55:06;100615.72;;;14.19;100.00
14089;BME280;7120;52.890;6.040;2023-09-19T05:57:33;100624.94;;;14.15;100.00
14089;BME280;7120;52.890;6.040;2023-09-19T05:59:59;100624.72;;;14.28;100.00
14089;BME280;7120;52.890;6.040;2023-09-19T06:02:24;100638.63;;;14.32;100.00
14089;BME280;7120;52.890;6.040;2023-09-19T06:04:54;100614.72;;;14.24;100.00
14089;BME280;7120;52.890;6.040;2023-09-19T06:07:21;100637.81;;;14.32;100.00
14089;BME280;7120;52.890;6.040;2023-09-19T06:09:47;100632.97;;;14.28;100.00
14089;BME280;7120;52.890;6.040;2023-09-19T06:12:12;100623.69;;;14.42;100.00
14089;BME280;7120;52.890;6.040;2023-09-19T06:14:42;100630.09;;;14.54;100.00
14089;BME280;7120;52.890;6.040;2023-09-19T06:17:08;100641.50;;;14.65;100.00
14089;BME280;7120;52.890;6.040;2023-09-19T06:19:34;100646.72;;;14.67;100.00
14089;BME280;7120;52.890;6.040;2023-09-19T06:21:59;100647.34;;;14.64;100.00
14089;BME280;7120;52.890;6.040;2023-09-19T06:24:25;100641.13;;;14.54;100.00
14089;BME280;7120;52.890;6.040;2023-09-19T06:26:51;100640.13;;;14.59;100.00
14089;BME280;7120;52.890;6.040;2023-09-19T06:29:18;100628.63;;;14.57;100.00
14089;BME280;7120;52.890;6.040;2023-09-19T06:31:43;100646.09;;;14.61;100.00
14089;BME280;7120;52.890;6.040;2023-09-19T06:34:10;100631.28;;;14.45;100.00
14089;BME280;7120;52.890;6.040;2023-09-19T06:36:35;100637.75;;;14.49;100.00
14089;BME280;7120;52.890;6.040;2023-09-19T06:39:01;100629.31;;;14.54;100.00
14089;BME280;7120;52.890;6.040;2023-09-19T06:41:26;100639.22;;;14.46;100.00
14089;BME280;7120;52.890;6.040;2023-09-19T06:43:51;100627.81;;;14.56;100.00
14089;BME280;7120;52.890;6.040;2023-09-19T06:46:19;100639.00;;;14.81;100.00
14089;BME280;7120;52.890;6.040;2023-09-19T06:48:45;100643.47;;;14.86;100.00
14089;BME280;7120;52.890;6.040;2023-09-19T06:51:13;100636.03;;;14.86;100.00
14089;BME280;7120;52.890;6.040;2023-09-19T06:53:40;100636.91;;;14.99;100.00
14089;BME280;7120;52.890;6.040;2023-09-19T06:56:06;100643.69;;;15.01;100.00
14089;BME280;7120;52.890;6.040;2023-09-19T06:58:31;100654.16;;;15.08;100.00
14089;BME280;7120;52.890;6.040;2023-09-19T07:00:57;100637.84;;;15.03;100.00
14089;BME280;7120;52.890;6.040;2023-09-19T07:03:22;100635.56;;;14.84;100.00
14089;BME280;7120;52.890;6.040;2023-09-19T07:05:51;100649.13;;;14.89;100.00
14089;BME280;7120;52.890;6.040;2023-09-19T07:08:16;100651.28;;;15.04;100.00
14089;BME280;7120;52.890;6.040;2023-09-19T07:10:42;100653.97;;;14.92;100.00
14089;BME280;7120;52.890;6.040;2023-09-19T07:13:14;100657.25;;;15.06;100.00
14089;BME280;7120;52.890;6.040;2023-09-19T07:15:42;100657.38;;;15.10;100.00
14089;BME280;7120;52.890;6.040;2023-09-19T07:18:12;100661.16;;;15.05;100.00
14089;BME280;7120;52.890;6.040;2023-09-19T07:20:40;100669.06;;;15.07;100.00
14089;BME280;7120;52.890;6.040;2023-09-19T07:23:11;100668.59;;;15.05;100.00
14089;BME280;7120;52.890;6.040;2023-09-19T07:25:38;100658.56;;;15.21;100.00
14089;BME280;7120;52.890;6.040;2023-09-19T07:28:04;100660.50;;;15.42;100.00
14089;BME280;7120;52.890;6.040;2023-09-19T07:30:31;100656.56;;;15.63;100.00
14089;BME280;7120;52.890;6.040;2023-09-19T07:32:56;100668.78;;;15.75;100.00
14089;BME280;7120;52.890;6.040;2023-09-19T07:35:22;100670.28;;;15.72;100.00
14089;BME280;7120;52.890;6.040;2023-09-19T07:37:49;100654.81;;;15.59;100.00
14089;BME280;7120;52.890;6.040;2023-09-19T07:40:18;100659.53;;;15.58;100.00
14089;BME280;7120;52.890;6.040;2023-09-19T07:42:44;100664.63;;;15.69;100.00
14089;BME280;7120;52.890;6.040;2023-09-19T07:45:12;100670.50;;;15.67;100.00
14089;BME280;7120;52.890;6.040;2023-09-19T07:47:46;100668.91;;;15.78;100.00
14089;BME280;7120;52.890;6.040;2023-09-19T07:50:12;100664.44;;;15.74;100.00
14089;BME280;7120;52.890;6.040;2023-09-19T07:52:38;100668.59;;;15.80;100.00
14089;BME280;7120;52.890;6.040;2023-09-19T07:55:05;100663.72;;;15.77;100.00
14089;BME280;7120;52.890;6.040;2023-09-19T07:57:35;100664.44;;;15.74;100.00
14089;BME280;7120;52.890;6.040;2023-09-19T08:00:02;100645.22;;;15.77;100.00
14089;BME280;7120;52.890;6.040;2023-09-19T08:02:30;100657.56;;;15.80;100.00
14089;BME280;7120;52.890;6.040;2023-09-19T08:04:59;100661.94;;;15.93;100.00
14089;BME280;7120;52.890;6.040;2023-09-19T08:07:25;100655.75;;;16.08;100.00
14089;BME280;7120;52.890;6.040;2023-09-19T08:09:51;100655.28;;;16.31;100.00
14089;BME280;7120;52.890;6.040;2023-09-19T08:12:16;100661.94;;;16.42;100.00
14089;BME280;7120;52.890;6.040;2023-09-19T08:14:42;100657.47;;;16.50;100.00
14089;BME280;7120;52.890;6.040;2023-09-19T08:17:07;100649.50;;;16.60;100.00
14089;BME280;7120;52.890;6.040;2023-09-19T08:19:33;100644.00;;;16.72;100.00
14089;BME280;7120;52.890;6.040;2023-09-19T08:21:59;100645.50;;;16.70;100.00
14089;BME280;7120;52.890;6.040;2023-09-19T08:24:28;100642.25;;;16.92;100.00
14089;BME280;7120;52.890;6.040;2023-09-19T08:26:55;100638.75;;;17.08;100.00
14089;BME280;7120;52.890;6.040;2023-09-19T08:29:24;100650.19;;;17.22;100.00
14089;BME280;7120;52.890;6.040;2023-09-19T08:31:59;100645.16;;;17.40;100.00
14089;BME280;7120;52.890;6.040;2023-09-19T08:34:25;100650.25;;;16.97;100.00
14089;BME280;7120;52.890;6.040;2023-09-19T08:36:51;100647.06;;;16.95;100.00
14089;BME280;7120;52.890;6.040;2023-09-19T08:39:18;100653.84;;;16.98;100.00
14089;BME280;7120;52.890;6.040;2023-09-19T08:41:44;100643.31;;;17.16;100.00
14089;BME280;7120;52.890;6.040;2023-09-19T08:44:09;100650.16;;;17.06;100.00
14089;BME280;7120;52.890;6.040;2023-09-19T08:46:37;100651.09;;;17.26;100.00
14089;BME280;7120;52.890;6.040;2023-09-19T08:49:04;100651.91;;;16.98;100.00
14089;BME280;7120;52.890;6.040;2023-09-19T08:51:41;100644.16;;;17.32;100.00
14089;BME280;7120;52.890;6.040;2023-09-19T08:54:25;100641.69;;;17.43;100.00
14089;BME280;7120;52.890;6.040;2023-09-19T08:56:55;100642.16;;;17.61;100.00
14089;BME280;7120;52.890;6.040;2023-09-19T08:59:25;100644.56;;;17.90;100.00
14089;BME280;7120;52.890;6.040;2023-09-19T09:01:53;100637.59;;;17.80;100.00
14089;BME280;7120;52.890;6.040;2023-09-19T09:04:22;100636.06;;;18.30;100.00
14089;BME280;7120;52.890;6.040;2023-09-19T09:06:48;100643.69;;;18.53;100.00
14089;BME280;7120;52.890;6.040;2023-09-19T09:09:18;100650.56;;;18.75;100.00
14089;BME280;7120;52.890;6.040;2023-09-19T09:11:45;100652.19;;;18.76;100.00
14089;BME280;7120;52.890;6.040;2023-09-19T09:14:11;100663.31;;;18.79;100.00
14089;BME280;7120;52.890;6.040;2023-09-19T09:16:37;100660.84;;;18.58;100.00
14089;BME280;7120;52.890;6.040;2023-09-19T09:19:04;100658.47;;;18.41;100.00
14089;BME280;7120;52.890;6.040;2023-09-19T09:21:29;100664.41;;;18.59;100.00
14089;BME280;7120;52.890;6.040;2023-09-19T09:23:55;100658.47;;;19.11;100.00
14089;BME280;7120;52.890;6.040;2023-09-19T09:26:56;100664.91;;;18.96;100.00
14089;BME280;7120;52.890;6.040;2023-09-19T09:29:58;100660.66;;;18.83;100.00
14089;BME280;7120;52.890;6.040;2023-09-19T09:32:30;100651.34;;;19.10;100.00
14089;BME280;7120;52.890;6.040;2023-09-19T09:35:00;100657.97;;;19.06;100.00
14089;BME280;7120;52.890;6.040;2023-09-19T09:37:27;100643.16;;;18.98;100.00
14089;BME280;7120;52.890;6.040;2023-09-19T09:40:02;100641.91;;;19.34;100.00
14089;BME280;7120;52.890;6.040;2023-09-19T09:42:39;100641.09;;;19.53;100.00
14089;BME280;7120;52.890;6.040;2023-09-19T09:45:19;100647.16;;;19.39;100.00
14089;BME280;7120;52.890;6.040;2023-09-19T09:48:04;100645.25;;;19.86;100.00
14089;BME280;7120;52.890;6.040;2023-09-19T09:50:47;100648.91;;;19.90;100.00
14089;BME280;7120;52.890;6.040;2023-09-19T09:53:27;100639.31;;;19.45;100.00
14089;BME280;7120;52.890;6.040;2023-09-19T09:56:09;100643.66;;;19.23;100.00
14089;BME280;7120;52.890;6.040;2023-09-19T09:58:36;100659.94;;;19.25;100.00
14089;BME280;7120;52.890;6.040;2023-09-19T10:01:03;100649.13;;;19.19;100.00
14089;BME280;7120;52.890;6.040;2023-09-19T10:03:41;100660.44;;;19.30;100.00
14089;BME280;7120;52.890;6.040;2023-09-19T10:06:14;100646.50;;;19.27;100.00
14089;BME280;7120;52.890;6.040;2023-09-19T10:09:08;100641.09;;;18.76;100.00
14089;BME280;7120;52.890;6.040;2023-09-19T10:11:57;100637.97;;;18.61;100.00
14089;BME280;7120;52.890;6.040;2023-09-19T10:14:30;100641.81;;;18.57;100.00
14089;BME280;7120;52.890;6.040;2023-09-19T10:16:58;100624.91;;;18.78;100.00
14089;BME280;7120;52.890;6.040;2023-09-19T10:19:46;100630.41;;;18.43;100.00
14089;BME280;7120;52.890;6.040;2023-09-19T10:22:13;100621.50;;;18.33;100.00
14089;BME280;7120;52.890;6.040;2023-09-19T10:24:46;100623.06;;;18.66;100.00
14089;BME280;7120;52.890;6.040;2023-09-19T10:27:12;100615.94;;;19.23;100.00
14089;BME280;7120;52.890;6.040;2023-09-19T10:29:39;100607.72;;;19.69;100.00
14089;BME280;7120;52.890;6.040;2023-09-19T10:32:06;100602.91;;;19.89;100.00
14089;BME280;7120;52.890;6.040;2023-09-19T10:34:35;100609.47;;;19.58;100.00
14089;BME280;7120;52.890;6.040;2023-09-19T10:37:02;100606.16;;;19.71;100.00
14089;BME280;7120;52.890;6.040;2023-09-19T10:39:32;100618.31;;;19.63;100.00
14089;BME280;7120;52.890;6.040;2023-09-19T10:42:01;100611.53;;;19.61;100.00
14089;BME280;7120;52.890;6.040;2023-09-19T10:44:32;100613.28;;;19.49;100.00
14089;BME280;7120;52.890;6.040;2023-09-19T10:46:57;100616.38;;;19.25;100.00
14089;BME280;7120;52.890;6.040;2023-09-19T10:49:23;100605.63;;;19.24;100.00
14089;BME280;7120;52.890;6.040;2023-09-19T10:51:52;100613.97;;;18.85;100.00
14089;BME280;7120;52.890;6.040;2023-09-19T10:54:21;100622.31;;;18.34;100.00
14089;BME280;7120;52.890;6.040;2023-09-19T10:56:52;100598.50;;;18.14;100.00
14089;BME280;7120;52.890;6.040;2023-09-19T10:59:21;100595.91;;;18.05;100.00
14089;BME280;7120;52.890;6.040;2023-09-19T11:01:53;100604.38;;;18.12;100.00
14089;BME280;7120;52.890;6.040;2023-09-19T11:04:30;100593.19;;;18.24;100.00
14089;BME280;7120;52.890;6.040;2023-09-19T11:07:04;100604.97;;;18.72;100.00
14089;BME280;7120;52.890;6.040;2023-09-19T11:09:50;100586.69;;;18.87;100.00
14089;BME280;7120;52.890;6.040;2023-09-19T11:15:03;100594.81;;;19.38;100.00
14089;BME280;7120;52.890;6.040;2023-09-19T11:17:34;100592.63;;;19.47;100.00
14089;BME280;7120;52.890;6.040;2023-09-19T11:30:37;100579.78;;;18.97;100.00
14089;BME280;7120;52.890;6.040;2023-09-19T11:36:10;100566.28;;;18.41;100.00
14089;BME280;7120;52.890;6.040;2023-09-19T11:43:50;100548.63;;;18.29;100.00
14089;BME280;7120;52.890;6.040;2023-09-19T11:46:16;100552.28;;;18.53;100.00
14089;BME280;7120;52.890;6.040;2023-09-19T11:48:50;100543.72;;;18.58;100.00
14089;BME280;7120;52.890;6.040;2023-09-19T11:51:17;100551.22;;;18.57;100.00
14089;BME280;7120;52.890;6.040;2023-09-19T11:53:53;100560.31;;;18.58;100.00
14089;BME280;7120;52.890;6.040;2023-09-19T11:56:22;100567.63;;;18.47;100.00
14089;BME280;7120;52.890;6.040;2023-09-19T11:58:54;100558.06;;;18.44;100.00
14089;BME280;7120;52.890;6.040;2023-09-19T12:03:55;100557.09;;;18.36;100.00
14089;BME280;7120;52.890;6.040;2023-09-19T12:06:22;100555.84;;;18.34;100.00
14089;BME280;7120;52.890;6.040;2023-09-19T12:08:48;100559.38;;;18.50;100.00
14089;BME280;7120;52.890;6.040;2023-09-19T12:11:16;100558.00;;;18.60;100.00
14089;BME280;7120;52.890;6.040;2023-09-19T12:13:45;100555.34;;;18.83;100.00
14089;BME280;7120;52.890;6.040;2023-09-19T12:16:18;100551.94;;;19.32;100.00
14089;BME280;7120;52.890;6.040;2023-09-19T12:18:47;100538.63;;;19.41;100.00
14089;BME280;7120;52.890;6.040;2023-09-19T12:21:31;100540.78;;;19.51;100.00
14089;BME280;7120;52.890;6.040;2023-09-19T12:26:43;100528.31;;;19.61;100.00
14089;BME280;7120;52.890;6.040;2023-09-19T12:29:21;100522.06;;;19.67;100.00
14089;BME280;7120;52.890;6.040;2023-09-19T12:31:57;100521.50;;;19.58;100.00
14089;BME280;7120;52.890;6.040;2023-09-19T12:34:24;100535.97;;;19.25;100.00
14089;BME280;7120;52.890;6.040;2023-09-19T12:37:15;100527.78;;;18.90;100.00
14089;BME280;7120;52.890;6.040;2023-09-19T12:39:46;100515.94;;;18.93;100.00
14089;BME280;7120;52.890;6.040;2023-09-19T12:42:15;100526.09;;;18.66;100.00
14089;BME280;7120;52.890;6.040;2023-09-19T12:44:43;100525.25;;;18.65;100.00
14089;BME280;7120;52.890;6.040;2023-09-19T12:47:16;100518.25;;;18.68;100.00
14089;BME280;7120;52.890;6.040;2023-09-19T12:50:14;100524.34;;;18.77;100.00
14089;BME280;7120;52.890;6.040;2023-09-19T12:55:40;100529.50;;;18.59;100.00
14089;BME280;7120;52.890;6.040;2023-09-19T12:58:13;100524.47;;;18.65;100.00
14089;BME280;7120;52.890;6.040;2023-09-19T13:00:45;100519.06;;;18.53;100.00
14089;BME280;7120;52.890;6.040;2023-09-19T13:05:53;100542.16;;;18.41;100.00
14089;BME280;7120;52.890;6.040;2023-09-19T13:08:35;100531.47;;;18.39;100.00
14089;BME280;7120;52.890;6.040;2023-09-19T13:11:05;100543.00;;;18.61;100.00
14089;BME280;7120;52.890;6.040;2023-09-19T13:13:31;100534.03;;;18.67;100.00
14089;BME280;7120;52.890;6.040;2023-09-19T13:15:57;100544.31;;;18.67;100.00
14089;BME280;7120;52.890;6.040;2023-09-19T13:18:23;100543.28;;;18.56;100.00
14089;BME280;7120;52.890;6.040;2023-09-19T13:21:09;100567.78;;;18.54;100.00
14089;BME280;7120;52.890;6.040;2023-09-19T13:23:38;100553.19;;;18.57;100.00
14089;BME280;7120;52.890;6.040;2023-09-19T13:26:03;100543.94;;;18.49;100.00
14089;BME280;7120;52.890;6.040;2023-09-19T13:28:31;100543.84;;;18.65;100.00
14089;BME280;7120;52.890;6.040;2023-09-19T13:30:56;100541.47;;;18.63;100.00
14089;BME280;7120;52.890;6.040;2023-09-19T13:33:22;100527.84;;;18.74;100.00
14089;BME280;7120;52.890;6.040;2023-09-19T13:35:47;100524.97;;;19.09;100.00
14089;BME280;7120;52.890;6.040;2023-09-19T13:38:14;100522.78;;;19.18;100.00
14089;BME280;7120;52.890;6.040;2023-09-19T13:40:39;100513.34;;;19.23;100.00
14089;BME280;7120;52.890;6.040;2023-09-19T13:43:07;100510.28;;;19.28;100.00
14089;BME280;7120;52.890;6.040;2023-09-19T13:45:33;100505.13;;;19.07;100.00